Time;durP1;ratioP1;P1;durP2;ratioP2;P2;SDS_P1;SDS_P2;PMS_P1;PMS_P2;Temp;Humidity;BMP_temperature;BMP_pressure;BME280_temperature;BME280_humidity;BME280_pressure;Samples;Min_cycle;Max_cycle;Signal;HPM_P1;HPM_P2
2023/07/23 00:01:26;;;;;;;19.38;6.20;;;;;;;-143.21;61.01;70926.19;5111685;28;20207;-76
2023/07/23 00:03:53;;;;;;;16.95;5.85;;;;;;;-143.21;61.39;70926.19;5119292;27;20199;-76
2023/07/23 00:06:20;;;;;;;20.02;6.00;;;;;;;-143.21;61.50;70918.25;5117110;27;20199;-76
2023/07/23 00:08:47;;;;;;;14.00;6.50;;;;;;;-143.21;61.25;70912.31;5120428;27;20224;-76
2023/07/23 00:11:15;;;;;;;16.90;6.45;;;;;;;-143.21;61.60;70920.25;5113202;27;20261;-76
2023/07/23 00:13:42;;;;;;;14.98;6.30;;;;;;;-143.21;61.65;70922.22;5116427;27;20200;-76
2023/07/23 00:16:08;;;;;;;14.00;5.80;;;;;;;-143.21;61.37;70924.22;5127466;27;20661;-77
2023/07/23 00:18:35;;;;;;;15.23;5.65;;;;;;;-143.21;61.22;70932.13;5114988;27;20670;-77
2023/07/23 00:21:02;;;;;;;17.08;6.15;;;;;;;-143.21;61.07;70936.09;5121177;27;20209;-77
2023/07/23 00:23:29;;;;;;;16.85;6.05;;;;;;;-143.21;61.25;70944.03;5124397;27;20279;-76
2023/07/23 00:25:56;;;;;;;13.18;5.85;;;;;;;-143.21;61.51;70948.00;5117807;27;20207;-78
2023/07/23 00:28:24;;;;;;;14.70;6.35;;;;;;;-143.21;61.49;70946.03;5126612;27;20210;-77
2023/07/23 00:30:51;;;;;;;13.70;6.25;;;;;;;-143.21;61.60;70948.00;5117988;27;20196;-76
2023/07/23 00:33:20;;;;;;;14.57;6.07;;;;;;;-143.21;61.56;70959.91;5121142;27;20247;-76
2023/07/23 00:35:47;;;;;;;17.08;6.07;;;;;;;-143.21;61.42;70961.88;5112698;27;20206;-76
2023/07/23 00:38:14;;;;;;;15.07;5.78;;;;;;;-143.21;61.65;70957.91;5114864;27;20283;-76
2023/07/23 00:40:41;;;;;;;17.30;6.43;;;;;;;-143.21;62.08;70975.75;5121525;27;20268;-76
2023/07/23 00:43:09;;;;;;;16.27;6.40;;;;;;;-143.21;62.04;70975.75;5117797;27;20196;-76
2023/07/23 00:45:37;;;;;;;13.60;6.45;;;;;;;-143.21;62.26;70985.66;5119981;27;20214;-76
2023/07/23 00:48:04;;;;;;;16.92;6.07;;;;;;;-143.21;62.12;70987.66;5117162;27;20207;-76
2023/07/23 00:50:31;;;;;;;15.23;6.07;;;;;;;-143.21;62.50;70997.56;5117613;27;20223;-76
2023/07/23 00:52:58;;;;;;;11.73;6.05;;;;;;;-143.21;62.77;71003.50;5123105;27;20226;-76
2023/07/23 00:55:26;;;;;;;16.95;6.20;;;;;;;-143.21;62.70;70999.53;5114540;27;20770;-76
2023/07/23 00:57:54;;;;;;;14.70;5.93;;;;;;;-143.21;63.18;71011.44;5118043;27;20234;-77
2023/07/23 01:00:21;;;;;;;12.18;6.07;;;;;;;-143.21;63.11;71005.50;5117071;27;20203;-76
2023/07/23 01:02:49;;;;;;;16.45;6.15;;;;;;;-143.21;63.14;71019.38;5116721;27;20203;-76
2023/07/23 01:05:17;;;;;;;19.23;6.82;;;;;;;-143.21;63.13;71039.19;5112966;27;20215;-77
2023/07/23 01:07:45;;;;;;;19.75;6.72;;;;;;;-143.21;63.59;71043.16;5113349;27;20207;-76
2023/07/23 01:10:13;;;;;;;21.40;7.00;;;;;;;-143.21;63.70;71043.16;5113568;27;20196;-77
2023/07/23 01:12:41;;;;;;;16.42;6.65;;;;;;;-143.21;64.22;71057.03;5114690;27;20303;-77
2023/07/23 01:15:09;;;;;;;16.15;6.95;;;;;;;-143.21;64.37;71062.97;5112932;27;20209;-77
2023/07/23 01:17:37;;;;;;;12.15;6.25;;;;;;;-143.21;64.25;71062.97;5118175;27;20267;-77
2023/07/23 01:20:07;;;;;;;19.10;6.30;;;;;;;-143.21;64.47;71080.81;5118659;27;20199;-77
2023/07/23 01:22:35;;;;;;;18.10;6.13;;;;;;;-143.21;64.76;71090.72;5113935;27;20246;-77
2023/07/23 01:25:04;;;;;;;17.33;6.40;;;;;;;-143.21;64.53;71086.75;5110474;27;20217;-77
2023/07/23 01:27:30;;;;;;;19.13;6.68;;;;;;;-143.21;64.51;71078.84;5110605;27;20308;-77
2023/07/23 01:29:57;;;;;;;16.63;7.13;;;;;;;-143.21;63.75;71086.75;5112117;27;20203;-77
2023/07/23 01:32:24;;;;;;;19.20;6.93;;;;;;;-143.21;63.47;71088.75;5114041;27;20230;-77
2023/07/23 01:34:52;;;;;;;15.55;6.53;;;;;;;-143.21;63.17;71094.69;5118581;27;20202;-76
2023/07/23 01:37:20;;;;;;;11.48;6.30;;;;;;;-143.21;63.36;71098.66;5116941;27;20212;-76
2023/07/23 01:39:48;;;;;;;26.55;7.53;;;;;;;-143.21;60.68;71108.56;5122640;27;20311;-76
2023/07/23 01:42:16;;;;;;;25.05;6.88;;;;;;;-143.21;61.78;71106.59;5112451;27;20203;-76
2023/07/23 01:44:43;;;;;;;18.20;7.43;;;;;;;-143.21;63.28;71102.63;5116407;27;20834;-76
2023/07/23 01:47:09;;;;;;;12.77;6.97;;;;;;;-143.21;62.49;71110.56;5122274;27;20203;-76
2023/07/23 01:49:36;;;;;;;14.60;6.60;;;;;;;-143.21;62.12;71112.53;5118090;27;20280;-78
2023/07/23 01:52:03;;;;;;;18.63;6.38;;;;;;;-143.21;62.01;71134.34;5114291;27;20228;-77
2023/07/23 01:54:30;;;;;;;13.85;6.45;;;;;;;-143.21;61.99;71140.28;5114276;27;20223;-77
2023/07/23 01:56:58;;;;;;;21.40;7.22;;;;;;;-143.21;63.16;71177.97;5113245;27;20207;-77
2023/07/23 01:59:25;;;;;;;15.05;6.65;;;;;;;-143.21;63.08;71177.97;5118300;27;20210;-77
2023/07/23 02:01:52;;;;;;;21.88;6.47;;;;;;;-143.21;62.60;71172.00;5118737;27;20661;-77
2023/07/23 02:04:19;;;;;;;20.98;6.65;;;;;;;-143.21;62.20;71177.97;5118596;27;20212;-77
2023/07/23 02:06:45;;;;;;;24.88;6.95;;;;;;;-143.21;61.27;71175.97;5118122;27;20208;-77
2023/07/23 02:09:12;;;;;;;19.33;7.35;;;;;;;-143.21;61.59;71172.00;5119703;27;20204;-77
2023/07/23 02:11:39;;;;;;;25.73;6.25;;;;;;;-143.21;61.80;71187.88;5116491;27;20199;-77
2023/07/23 02:14:08;;;;;;;23.77;6.63;;;;;;;-143.21;62.56;71197.78;5112808;27;20224;-77
2023/07/23 02:16:35;;;;;;;18.90;7.30;;;;;;;-143.21;63.31;71219.59;5119441;27;20199;-76
2023/07/23 02:19:02;;;;;;;28.33;7.25;;;;;;;-143.21;63.33;71229.50;5114451;27;20203;-77
2023/07/23 02:21:28;;;;;;;17.02;6.75;;;;;;;-143.21;63.71;71231.50;5124670;27;20195;-76
2023/07/23 02:23:55;;;;;;;23.42;7.10;;;;;;;-143.21;64.87;71257.25;5120784;27;20207;-76
2023/07/23 02:26:22;;;;;;;22.88;8.10;;;;;;;-143.21;66.03;71273.13;5116962;27;20204;-76
2023/07/23 02:28:49;;;;;;;24.92;8.20;;;;;;;-143.21;66.56;71273.13;5120307;27;20203;-76
2023/07/23 02:31:17;;;;;;;19.88;8.10;;;;;;;-143.21;66.83;71261.22;5109466;27;20222;-76
2023/07/23 02:33:44;;;;;;;21.33;8.43;;;;;;;-143.21;67.11;71257.25;5112026;27;20236;-76
2023/07/23 02:36:11;;;;;;;21.65;9.60;;;;;;;-143.21;67.01;71253.28;5108032;27;20211;-76
2023/07/23 02:38:37;;;;;;;21.17;9.98;;;;;;;-143.21;66.95;71249.34;5114128;27;20648;-76
2023/07/23 02:41:04;;;;;;;21.67;9.85;;;;;;;-143.21;67.44;71259.25;5119777;27;20213;-76
2023/07/23 02:43:31;;;;;;;21.23;10.48;;;;;;;-143.21;67.56;71261.22;5114553;27;20199;-77
2023/07/23 02:45:58;;;;;;;16.92;10.38;;;;;;;-143.21;67.95;71267.19;5115039;27;20207;-76
2023/07/23 02:48:26;;;;;;;23.40;11.18;;;;;;;-143.21;68.43;71267.19;5115857;27;20203;-76
2023/07/23 02:50:53;;;;;;;16.05;10.18;;;;;;;-143.21;68.29;71263.22;5117649;27;20234;-75
2023/07/23 02:53:20;;;;;;;26.90;12.18;;;;;;;-143.21;68.30;71263.22;5118710;27;20280;-76
2023/07/23 02:55:47;;;;;;;19.83;11.98;;;;;;;-143.21;68.98;71273.13;5108697;27;21485;-76
2023/07/23 02:58:14;;;;;;;23.40;12.57;;;;;;;-143.21;69.19;71273.13;5116171;27;20215;-75
2023/07/23 03:00:41;;;;;;;24.52;12.82;;;;;;;-143.21;69.41;71279.06;5109074;27;20196;-75
2023/07/23 03:03:08;;;;;;;23.95;13.23;;;;;;;-143.21;69.60;71269.16;5108026;27;20657;-76
2023/07/23 03:05:38;;;;;;;21.67;13.65;;;;;;;-143.21;69.28;71273.13;5109004;27;20196;-76
2023/07/23 03:08:05;;;;;;;23.48;12.75;;;;;;;-143.21;69.83;71285.03;5109995;27;20213;-75
2023/07/23 03:10:32;;;;;;;21.10;13.77;;;;;;;-143.21;70.40;71288.97;5109339;27;20584;-75
2023/07/23 03:12:59;;;;;;;27.55;13.27;;;;;;;-143.21;70.81;71300.88;5112725;27;20231;-76
2023/07/23 03:15:26;;;;;;;28.02;13.10;;;;;;;-143.21;71.60;71318.72;5108788;27;20203;-76
2023/07/23 03:17:52;;;;;;;19.40;12.93;;;;;;;-143.21;72.23;71332.59;5110093;27;20203;-75
2023/07/23 03:20:19;;;;;;;21.38;13.32;;;;;;;-143.21;73.18;71348.47;5113176;27;20208;-78
2023/07/23 03:22:48;;;;;;;30.17;13.90;;;;;;;-143.21;73.78;71368.28;5112227;27;20211;-77
2023/07/23 03:25:16;;;;;;;24.83;13.25;;;;;;;-143.21;74.07;71372.25;5115673;27;20313;-78
2023/07/23 03:27:43;;;;;;;18.08;12.95;;;;;;;-143.21;74.20;71364.31;5107537;28;20653;-75
2023/07/23 03:30:11;;;;;;;23.23;13.23;;;;;;;-143.21;74.65;71390.09;5107689;27;20208;-75
2023/07/23 03:32:38;;;;;;;23.13;13.32;;;;;;;-143.21;75.20;71392.06;5109092;27;20227;-75
2023/07/23 03:35:06;;;;;;;25.73;16.90;;;;;;;-143.21;75.13;71396.03;5111011;27;20666;-75
2023/07/23 03:37:33;;;;;;;31.73;19.30;;;;;;;-143.21;75.45;71402.00;5112710;27;20647;-76
2023/07/23 03:40:01;;;;;;;31.98;20.20;;;;;;;-143.21;75.29;71400.00;5114231;27;20204;-75
2023/07/23 03:42:28;;;;;;;29.65;18.23;;;;;;;-143.21;75.30;71403.97;5113086;27;20212;-75
2023/07/23 03:44:54;;;;;;;23.45;15.60;;;;;;;-143.21;75.05;71409.91;5104978;27;20233;-75
2023/07/23 03:47:21;;;;;;;22.95;13.70;;;;;;;-143.21;74.58;71398.03;5116999;27;20817;-75
2023/07/23 03:49:48;;;;;;;25.90;12.82;;;;;;;-143.21;73.54;71388.09;5115884;27;20211;-76
2023/07/23 03:52:15;;;;;;;22.67;12.80;;;;;;;-143.21;72.78;71382.16;5111886;27;20236;-76
2023/07/23 03:54:42;;;;;;;24.23;13.00;;;;;;;-143.21;72.57;71380.19;5115193;27;20207;-75
2023/07/23 03:57:10;;;;;;;24.38;12.95;;;;;;;-143.21;71.85;71364.31;5111584;27;20257;-75
2023/07/23 03:59:39;;;;;;;20.98;12.95;;;;;;;-143.21;71.13;71360.34;5112432;27;20200;-76
2023/07/23 04:02:06;;;;;;;18.95;13.32;;;;;;;-143.21;70.83;71364.31;5114074;28;20196;-76
2023/07/23 04:04:33;;;;;;;22.02;13.48;;;;;;;-143.21;70.71;71356.38;5119664;28;20199;-76
2023/07/23 04:07:00;;;;;;;18.83;13.52;;;;;;;-143.21;70.50;71346.47;5120410;28;20211;-77
2023/07/23 04:09:27;;;;;;;19.83;13.88;;;;;;;-143.21;70.29;71348.47;5112860;27;20215;-76
2023/07/23 04:11:54;;;;;;;20.52;13.52;;;;;;;-143.21;70.13;71346.47;5104385;28;20218;-76
2023/07/23 04:14:22;;;;;;;19.10;14.40;;;;;;;-143.21;70.05;71338.53;5108536;28;20226;-76
2023/07/23 04:16:49;;;;;;;25.33;15.70;;;;;;;-143.21;70.05;71340.53;5108140;28;20202;-77
2023/07/23 04:19:16;;;;;;;24.77;14.77;;;;;;;-143.21;70.06;71336.56;5114962;28;20204;-76
2023/07/23 04:21:43;;;;;;;23.38;16.02;;;;;;;-143.21;70.10;71334.59;5112316;28;20945;-77
2023/07/23 04:24:10;;;;;;;24.58;18.02;;;;;;;-143.21;70.09;71338.53;5112672;28;20196;-77
2023/07/23 04:26:37;;;;;;;26.00;19.13;;;;;;;-143.21;69.77;71330.63;5107483;28;20212;-77
2023/07/23 04:29:04;;;;;;;24.83;19.02;;;;;;;-143.21;69.81;71328.63;5115539;28;20293;-77
2023/07/23 04:31:32;;;;;;;30.48;21.08;;;;;;;-143.21;69.95;71334.59;5115952;28;20568;-75
2023/07/23 04:33:59;;;;;;;26.45;19.73;;;;;;;-143.21;69.49;71330.63;5114069;28;20219;-76
2023/07/23 04:36:26;;;;;;;25.00;18.23;;;;;;;-143.21;69.16;71316.75;5119190;28;20909;-77
2023/07/23 04:38:53;;;;;;;25.80;17.17;;;;;;;-143.21;68.60;71300.88;5105486;28;20207;-76
2023/07/23 04:41:19;;;;;;;22.73;17.27;;;;;;;-143.21;67.99;71279.06;5111624;28;20200;-76
2023/07/23 04:43:49;;;;;;;21.73;17.40;;;;;;;-143.21;67.44;71261.22;5106908;28;20208;-76
2023/07/23 04:46:15;;;;;;;21.65;16.52;;;;;;;-143.21;66.62;71241.41;5113407;28;20224;-76
2023/07/23 04:48:44;;;;;;;21.88;15.73;;;;;;;-143.21;65.30;71227.53;5110582;28;20638;-76
2023/07/23 04:51:10;;;;;;;19.17;14.95;;;;;;;-143.21;65.12;71217.59;5117431;27;20232;-76
2023/07/23 04:53:37;;;;;;;18.65;14.65;;;;;;;-143.21;64.54;71215.63;5119213;27;20220;-76
2023/07/23 04:56:05;;;;;;;20.73;15.20;;;;;;;-143.21;64.45;71225.53;5118195;27;20207;-76
2023/07/23 04:58:33;;;;;;;21.30;14.50;;;;;;;-143.21;64.54;71221.56;5118260;27;20207;-76
2023/07/23 05:01:08;;;;;;;21.02;14.40;;;;;;;-143.21;63.68;71201.75;5119376;27;20206;-76
2023/07/23 05:03:34;;;;;;;18.80;13.75;;;;;;;-143.21;63.85;71197.78;5115804;27;20876;-76
2023/07/23 05:06:04;;;;;;;21.48;13.85;;;;;;;-143.21;63.50;71189.84;5114876;27;20236;-76
2023/07/23 05:08:31;;;;;;;21.20;13.40;;;;;;;-143.21;62.86;71177.97;5111041;27;20681;-76
2023/07/23 05:11:02;;;;;;;18.55;12.88;;;;;;;-143.21;62.62;71152.19;5117370;27;20200;-76
2023/07/23 05:13:30;;;;;;;19.90;13.75;;;;;;;-143.21;62.18;71136.31;5111241;27;20216;-76
2023/07/23 05:15:58;;;;;;;21.13;13.32;;;;;;;-143.21;61.73;71120.47;5121841;27;20199;-76
2023/07/23 05:18:25;;;;;;;17.45;12.35;;;;;;;-143.21;61.47;71110.56;5112040;27;20734;-76
2023/07/23 05:20:52;;;;;;;17.75;12.68;;;;;;;-143.21;61.36;71100.66;5113191;27;20212;-77
2023/07/23 05:23:20;;;;;;;18.65;12.52;;;;;;;-143.21;60.99;71096.69;5117872;27;20670;-77
2023/07/23 05:25:47;;;;;;;18.83;12.85;;;;;;;-143.21;61.03;71082.81;5112192;27;20559;-76
2023/07/23 05:28:15;;;;;;;14.70;12.55;;;;;;;-143.21;60.74;71084.78;5122261;27;20222;-76
2023/07/23 05:30:41;;;;;;;19.50;12.52;;;;;;;-143.21;60.34;71076.84;5110788;27;20211;-76
2023/07/23 05:33:09;;;;;;;15.48;12.07;;;;;;;-143.21;60.39;71080.81;5122370;27;20280;-75
2023/07/23 05:35:36;;;;;;;13.73;11.75;;;;;;;-143.21;60.72;71082.81;5111538;27;20206;-76
2023/07/23 05:38:03;;;;;;;18.55;13.20;;;;;;;-143.21;60.91;71072.88;5114975;27;20623;-76
2023/07/23 05:40:35;;;;;;;23.63;13.40;;;;;;;-143.21;60.77;71059.00;5112550;27;20219;-77
2023/07/23 05:43:08;;;;;;;25.13;12.95;;;;;;;-143.21;60.97;71059.00;5117967;27;20686;-76
2023/07/23 05:45:35;;;;;;;18.13;12.32;;;;;;;-143.21;61.06;71055.06;5114348;27;20264;-76
2023/07/23 05:48:02;;;;;;;20.48;12.70;;;;;;;-143.21;61.33;71053.06;5110414;27;20585;-76
2023/07/23 05:50:29;;;;;;;21.73;11.30;;;;;;;-143.21;61.46;71051.09;5112389;27;20204;-77
2023/07/23 05:52:56;;;;;;;17.02;11.73;;;;;;;-143.21;61.67;71049.09;5114355;27;20200;-76
2023/07/23 05:55:24;;;;;;;18.75;12.20;;;;;;;-143.21;61.47;71049.09;5110888;27;20207;-77
2023/07/23 05:57:52;;;;;;;21.48;12.98;;;;;;;-143.21;61.92;71049.09;5118152;27;20312;-77
2023/07/23 06:00:19;;;;;;;21.73;12.88;;;;;;;-143.21;61.52;71035.22;5111200;27;20280;-77
2023/07/23 06:02:45;;;;;;;20.08;13.00;;;;;;;-143.21;61.31;71039.19;5110854;27;20215;-76
2023/07/23 06:05:12;;;;;;;17.42;12.30;;;;;;;-143.21;61.19;71031.25;5109772;27;20211;-77
2023/07/23 06:07:39;;;;;;;19.02;12.70;;;;;;;-143.21;61.51;71027.28;5111101;27;20682;-76
2023/07/23 06:10:07;;;;;;;19.60;12.38;;;;;;;-143.21;60.82;71019.38;5108556;27;20211;-76
2023/07/23 06:12:34;;;;;;;18.42;12.23;;;;;;;-143.21;60.88;71029.28;5120991;27;20206;-77
2023/07/23 06:15:03;;;;;;;17.45;12.15;;;;;;;-143.21;61.04;71039.19;5110381;27;20342;-77
2023/07/23 06:17:29;;;;;;;20.55;13.18;;;;;;;-143.21;61.41;71039.19;5107213;27;20842;-77
2023/07/23 06:19:56;;;;;;;22.13;12.43;;;;;;;-143.21;61.47;71039.19;5109505;27;20686;-77
2023/07/23 06:22:23;;;;;;;18.63;12.05;;;;;;;-143.21;61.28;71043.16;5111206;27;20593;-76
2023/07/23 06:24:50;;;;;;;22.17;12.43;;;;;;;-143.21;61.59;71047.13;5117583;27;20203;-76
2023/07/23 06:27:17;;;;;;;23.20;12.43;;;;;;;-143.21;61.07;71053.06;5107701;27;20208;-75
2023/07/23 06:29:43;;;;;;;25.83;12.30;;;;;;;-143.21;61.04;71047.13;5113237;27;20237;-75
2023/07/23 06:32:12;;;;;;;21.23;11.98;;;;;;;-143.21;60.38;71037.22;5106503;27;20211;-76
2023/07/23 06:34:38;;;;;;;16.38;10.65;;;;;;;-143.21;60.00;71033.25;5115124;27;20231;-76
2023/07/23 06:37:06;;;;;;;13.77;10.52;;;;;;;-143.21;58.46;71039.19;5113627;27;20211;-75
2023/07/23 06:39:34;;;;;;;16.08;10.10;;;;;;;-143.21;57.37;71027.28;5109999;27;20227;-75
2023/07/23 06:42:01;;;;;;;16.35;11.45;;;;;;;-143.21;57.25;71019.38;5112399;27;20215;-75
2023/07/23 06:44:28;;;;;;;15.98;10.63;;;;;;;-143.21;56.29;71003.50;5110446;27;20218;-75
2023/07/23 06:46:57;;;;;;;15.23;10.60;;;;;;;-143.21;55.93;70999.53;5107020;27;20208;-76
2023/07/23 06:49:28;;;;;;;15.80;10.65;;;;;;;-143.21;55.72;71001.53;5108000;27;20199;-76
2023/07/23 06:51:55;;;;;;;17.90;10.65;;;;;;;-143.21;56.19;70999.53;5117418;27;20985;-76
2023/07/23 06:54:22;;;;;;;16.70;10.68;;;;;;;-143.21;55.93;70995.56;5106953;27;20230;-76
2023/07/23 06:56:51;;;;;;;15.15;10.35;;;;;;;-143.21;56.15;70987.66;5116054;27;20948;-76
2023/07/23 06:59:18;;;;;;;15.23;10.13;;;;;;;-143.21;55.13;70977.72;5113438;27;20217;-77
2023/07/23 07:01:45;;;;;;;12.18;8.98;;;;;;;-143.21;54.16;70981.69;5111649;27;20200;-77
2023/07/23 07:04:12;;;;;;;13.10;9.63;;;;;;;-143.21;53.68;70973.78;5110447;27;20207;-76
2023/07/23 07:06:40;;;;;;;14.57;8.70;;;;;;;-143.21;52.92;70944.03;5116414;27;20211;-76
2023/07/23 07:09:07;;;;;;;15.75;8.52;;;;;;;-143.21;52.05;70942.06;5112345;27;20210;-76
2023/07/23 07:11:34;;;;;;;11.55;8.57;;;;;;;-143.21;52.28;70928.19;5117935;27;20211;-76
2023/07/23 07:14:00;;;;;;;12.68;8.02;;;;;;;-143.21;51.78;70926.19;5111726;27;20227;-75
2023/07/23 07:16:27;;;;;;;13.05;8.93;;;;;;;-143.21;51.39;70928.19;5117527;27;20204;-77
2023/07/23 07:18:54;;;;;;;15.32;7.65;;;;;;;-143.21;51.02;70918.25;5111477;27;20199;-76
2023/07/23 07:21:21;;;;;;;14.15;8.15;;;;;;;-143.21;50.97;70920.25;5112316;27;20199;-76
2023/07/23 07:23:49;;;;;;;9.45;7.47;;;;;;;-143.21;50.57;70916.28;5114963;27;20515;-76
2023/07/23 07:26:16;;;;;;;10.27;7.60;;;;;;;-143.21;49.98;70900.41;5105421;27;20203;-77
2023/07/23 07:28:43;;;;;;;12.10;8.13;;;;;;;-143.21;50.19;70908.34;5113672;27;20208;-77
2023/07/23 07:31:11;;;;;;;12.23;7.90;;;;;;;-143.21;48.71;70894.47;5109366;27;20207;-76
2023/07/23 07:33:39;;;;;;;10.55;7.28;;;;;;;-143.21;48.27;70894.47;5107249;27;20208;-76
2023/07/23 07:36:05;;;;;;;10.38;6.40;;;;;;;-143.21;46.29;70896.47;5106647;27;20232;-76
2023/07/23 07:38:32;;;;;;;12.40;7.38;;;;;;;-143.21;45.90;70884.56;5118883;27;20199;-76
2023/07/23 07:41:01;;;;;;;8.93;6.60;;;;;;;-143.21;46.13;70884.56;5114240;27;20210;-75
2023/07/23 07:43:28;;;;;;;12.38;6.95;;;;;;;-143.21;46.64;70866.72;5114608;27;20216;-76
2023/07/23 07:45:59;;;;;;;9.45;6.22;;;;;;;-143.21;44.57;70872.66;5110258;27;20601;-79
2023/07/23 07:48:26;;;;;;;12.13;6.00;;;;;;;-143.21;43.35;70878.63;5111250;27;20793;-80
2023/07/23 07:50:58;;;;;;;15.23;6.70;;;;;;;-143.21;44.66;70866.72;5110651;27;20235;-80
2023/07/23 07:53:25;;;;;;;10.25;6.60;;;;;;;-143.21;44.08;70860.78;5104960;27;20618;-82
2023/07/23 07:55:52;;;;;;;10.48;6.28;;;;;;;-143.21;42.74;70862.75;5103696;27;20225;-83
2023/07/23 07:58:24;;;;;;;10.38;6.55;;;;;;;-143.21;43.18;70870.69;5108290;28;20210;-81
2023/07/23 08:00:52;;;;;;;9.77;6.50;;;;;;;-143.21;43.58;70866.72;5114216;27;20199;-81
2023/07/23 08:03:27;;;;;;;10.52;6.50;;;;;;;-143.21;40.44;70872.66;5108948;27;20215;-81
2023/07/23 08:05:55;;;;;;;9.88;6.15;;;;;;;-143.21;42.09;70876.63;5109179;28;20299;-81
2023/07/23 08:08:25;;;;;;;6.78;5.93;;;;;;;-143.21;42.61;70864.75;5112027;28;20204;-81
2023/07/23 08:10:53;;;;;;;9.27;6.13;;;;;;;-143.21;43.62;70848.88;5108910;27;20280;-81
2023/07/23 08:13:22;;;;;;;9.43;6.53;;;;;;;-143.21;44.31;70846.91;5111469;27;20291;-82
2023/07/23 08:15:49;;;;;;;8.98;6.22;;;;;;;-143.21;42.88;70862.75;5108607;28;20632;-82
2023/07/23 08:18:16;;;;;;;10.48;6.50;;;;;;;-143.21;41.99;70864.75;5113208;28;20701;-81
2023/07/23 08:20:44;;;;;;;9.27;6.30;;;;;;;-143.21;42.90;70856.81;5103389;28;20203;-81
2023/07/23 08:23:11;;;;;;;11.07;6.40;;;;;;;-143.21;42.57;70852.84;5107637;28;20238;-81
2023/07/23 08:25:39;;;;;;;10.63;6.25;;;;;;;-143.21;42.70;70844.91;5109601;27;20203;-82
2023/07/23 08:28:08;;;;;;;11.82;6.70;;;;;;;-143.21;41.09;70837.00;5113489;27;20196;-82
2023/07/23 08:30:36;;;;;;;15.02;6.90;;;;;;;-143.21;41.90;70825.09;5110965;27;20207;-81
2023/07/23 08:33:03;;;;;;;9.52;6.40;;;;;;;-143.21;41.20;70819.16;5119006;27;20196;-81
2023/07/23 08:35:33;;;;;;;8.73;6.68;;;;;;;-143.21;41.72;70815.19;5115576;27;20607;-81
2023/07/23 08:38:00;;;;;;;11.52;6.65;;;;;;;-143.21;41.88;70817.16;5114543;27;20261;-81
2023/07/23 08:40:27;;;;;;;9.43;6.45;;;;;;;-143.21;41.65;70803.28;5108280;27;20354;-81
2023/07/23 08:43:35;;;;;;;9.82;6.38;;;;;;;-143.21;41.19;70795.38;5113001;27;20200;-83
2023/07/23 08:46:22;;;;;;;12.23;6.63;;;;;;;-143.21;42.55;70793.38;5110767;27;20211;-81
2023/07/23 08:49:09;;;;;;;12.30;6.88;;;;;;;-143.21;42.34;70785.44;5109687;27;20187;-81
2023/07/23 08:51:43;;;;;;;8.60;6.25;;;;;;;-143.21;41.75;70781.50;5111000;27;20256;-81
2023/07/23 08:54:11;;;;;;;10.38;6.90;;;;;;;-143.21;41.38;70779.50;5106552;27;20199;-82
2023/07/23 08:56:39;;;;;;;10.32;6.68;;;;;;;-143.21;40.80;70787.44;5110173;27;20282;-81
2023/07/23 08:59:07;;;;;;;11.13;6.50;;;;;;;-143.21;41.36;70795.38;5117506;27;20202;-81
2023/07/23 09:01:37;;;;;;;12.73;7.05;;;;;;;-143.21;41.79;70783.47;5106944;27;20685;-81
2023/07/23 09:04:06;;;;;;;8.38;6.22;;;;;;;-143.21;41.75;70783.47;5113361;27;20219;-81
2023/07/23 09:06:33;;;;;;;10.55;6.95;;;;;;;-143.21;40.36;70773.56;5111118;27;20211;-80
2023/07/23 09:09:07;;;;;;;10.60;7.22;;;;;;;-143.21;42.01;70777.53;5107787;27;20215;-80
2023/07/23 09:11:35;;;;;;;11.27;6.95;;;;;;;-143.21;41.35;70749.78;5117985;27;20206;-80
2023/07/23 09:14:03;;;;;;;13.60;6.75;;;;;;;-143.21;40.81;70724.00;5111820;27;20690;-81
2023/07/23 09:16:30;;;;;;;9.98;6.63;;;;;;;-143.21;39.85;70692.28;5110156;27;20650;-81
2023/07/23 09:18:58;;;;;;;10.75;7.00;;;;;;;-143.21;39.25;70698.22;5115166;27;20207;-80
2023/07/23 09:21:27;;;;;;;10.40;7.07;;;;;;;-143.21;39.63;70696.25;5110315;27;20218;-80
2023/07/23 09:23:54;;;;;;;10.43;6.82;;;;;;;-143.21;38.88;70686.34;5109328;27;20233;-82
2023/07/23 09:26:23;;;;;;;12.70;7.45;;;;;;;-143.21;39.84;70670.47;5112284;27;20307;-80
2023/07/23 09:28:51;;;;;;;8.27;6.82;;;;;;;-143.21;38.32;70670.47;5112302;27;20236;-80
2023/07/23 09:31:26;;;;;;;12.68;7.03;;;;;;;-143.21;38.60;70674.44;5110155;27;21912;-82
2023/07/23 09:33:54;;;;;;;9.82;7.03;;;;;;;-143.21;37.92;70676.44;5115572;27;20592;-81
2023/07/23 09:36:23;;;;;;;11.40;6.85;;;;;;;-143.21;38.89;70656.59;5106969;27;20239;-81
2023/07/23 09:38:57;;;;;;;11.77;7.50;;;;;;;-143.21;37.67;70644.72;5106256;27;20200;-81
2023/07/23 09:41:34;;;;;;;12.52;7.30;;;;;;;-143.21;37.84;70640.75;5109847;27;20219;-81
2023/07/23 09:44:05;;;;;;;9.90;6.88;;;;;;;-143.21;38.90;70656.59;5107718;27;20591;-81
2023/07/23 09:46:33;;;;;;;12.43;7.55;;;;;;;-143.21;39.21;70664.53;5110499;27;20618;-83
2023/07/23 09:49:00;;;;;;;14.10;7.53;;;;;;;-143.21;38.57;70652.66;5114587;27;20215;-82
2023/07/23 09:51:31;;;;;;;9.25;6.35;;;;;;;-143.21;37.84;70616.97;5107395;27;20702;-82
2023/07/23 09:54:00;;;;;;;12.93;7.28;;;;;;;-143.21;37.16;70599.13;5117849;27;20191;-83
2023/07/23 09:56:28;;;;;;;15.07;7.38;;;;;;;-143.21;38.13;70581.28;5109942;27;20239;-82
2023/07/23 09:58:55;;;;;;;12.00;7.60;;;;;;;-143.21;37.83;70571.38;5109471;27;20207;-89
2023/07/23 10:01:22;;;;;;;11.68;6.85;;;;;;;-143.21;37.74;70553.53;5107637;27;20460;-84
2023/07/23 10:03:53;;;;;;;13.82;7.65;;;;;;;-143.21;37.82;70527.75;5110908;27;20340;-79
2023/07/23 10:06:23;;;;;;;13.77;8.68;;;;;;;-143.21;38.08;70515.88;5108220;27;20224;-78
2023/07/23 10:08:51;;;;;;;13.68;7.40;;;;;;;-143.21;37.26;70472.25;5113270;27;20224;-78
2023/07/23 10:11:21;;;;;;;10.55;7.32;;;;;;;-143.21;36.26;70436.59;5109893;27;20207;-78
2023/07/23 10:13:48;;;;;;;12.52;7.53;;;;;;;-143.21;36.32;70426.69;5111375;27;20716;-78
2023/07/23 10:16:24;;;;;;;10.63;7.90;;;;;;;-143.21;35.47;70404.88;5109215;27;20227;-78
2023/07/23 10:18:52;;;;;;;10.60;7.35;;;;;;;-143.21;34.23;70389.03;5111092;27;20207;-78
2023/07/23 10:21:19;;;;;;;11.77;7.20;;;;;;;-143.21;33.71;70371.19;5105022;27;20300;-78
2023/07/23 10:23:56;;;;;;;11.82;7.85;;;;;;;-143.21;33.83;70357.31;5120072;27;20300;-78
2023/07/23 10:26:24;;;;;;;13.18;7.68;;;;;;;-143.21;33.15;70339.47;5108092;27;20375;-77
2023/07/23 10:28:52;;;;;;;13.57;8.30;;;;;;;-143.21;33.97;70341.44;5116250;27;21736;-77
2023/07/23 10:31:25;;;;;;;16.50;8.13;;;;;;;-143.21;33.94;70331.53;5108046;27;20583;-78
2023/07/23 10:33:52;;;;;;;12.77;8.35;;;;;;;-143.21;33.25;70331.53;5109660;27;20214;-77
2023/07/23 10:36:22;;;;;;;10.20;7.90;;;;;;;-143.21;33.15;70299.84;5107761;27;20228;-77
2023/07/23 10:39:03;;;;;;;12.07;7.97;;;;;;;-143.21;34.20;70282.00;5107320;27;20629;-78
2023/07/23 10:41:52;;;;;;;14.20;7.93;;;;;;;-143.21;33.33;70264.16;5106803;27;20327;-78
2023/07/23 10:44:25;;;;;;;10.93;8.27;;;;;;;-143.21;33.63;70254.25;5115788;27;20211;-77
2023/07/23 10:46:52;;;;;;;18.23;7.93;;;;;;;-143.21;33.36;70246.31;5102802;28;20199;-78
2023/07/23 10:49:25;;;;;;;15.95;7.88;;;;;;;-143.21;33.98;70242.34;5106373;27;20215;-77
2023/07/23 10:51:52;;;;;;;12.30;8.65;;;;;;;-143.21;33.52;70248.28;5103445;27;20243;-78
2023/07/23 10:54:20;;;;;;;10.68;8.18;;;;;;;-143.21;32.87;70222.53;5111432;27;20221;-78
2023/07/23 10:56:48;;;;;;;17.85;8.80;;;;;;;-143.21;32.36;70208.66;5113286;27;20362;-78
2023/07/23 10:59:20;;;;;;;14.80;7.93;;;;;;;-143.21;31.63;70206.69;5106935;27;20196;-77
2023/07/23 11:01:51;;;;;;;13.68;8.60;;;;;;;-143.21;31.32;70208.66;5111850;27;20195;-78
2023/07/23 11:04:24;;;;;;;12.05;8.57;;;;;;;-143.21;30.52;70178.94;5116053;27;20670;-78
2023/07/23 11:06:59;;;;;;;13.93;9.02;;;;;;;-143.21;31.57;70200.72;5112355;27;20673;-77
2023/07/23 11:09:28;;;;;;;14.07;8.60;;;;;;;-143.21;30.96;70180.91;5113842;27;20206;-77
2023/07/23 11:11:56;;;;;;;16.55;9.43;;;;;;;-143.21;30.79;70182.91;5111310;27;20222;-77